createdAt,value
2018-08-20T00:00:18.973Z,100772
2018-08-20T00:02:47.843Z,100778
2018-08-20T00:05:16.717Z,100775
2018-08-20T00:07:45.569Z,100779
2018-08-20T00:10:14.418Z,100777
2018-08-20T00:12:43.265Z,100776
2018-08-20T00:15:12.131Z,100782
2018-08-20T00:17:40.968Z,100779
2018-08-20T00:20:09.807Z,100776
2018-08-20T00:22:38.650Z,100772
2018-08-20T00:25:07.487Z,100776
2018-08-20T00:27:36.332Z,100770
2018-08-20T00:30:05.173Z,100767
2018-08-20T00:32:34.022Z,100764
2018-08-20T00:35:02.866Z,100765
2018-08-20T00:37:32.444Z,100771
2018-08-20T00:40:01.279Z,100758
2018-08-20T00:42:30.132Z,100767
2018-08-20T00:44:58.982Z,100760
2018-08-20T00:47:27.832Z,100772
2018-08-20T00:49:57.412Z,100767
2018-08-20T00:52:26.258Z,100771
2018-08-20T00:54:55.097Z,100764
2018-08-20T00:57:23.954Z,100770
2018-08-20T00:59:52.805Z,100780
2018-08-20T01:02:21.656Z,100781
2018-08-20T01:04:50.499Z,100775
2018-08-20T01:07:19.347Z,100776
2018-08-20T01:09:48.196Z,100782
2018-08-20T01:12:17.050Z,100781
2018-08-20T01:14:45.915Z,100774
2018-08-20T01:17:15.506Z,100775
2018-08-20T01:19:44.352Z,100775
2018-08-20T01:22:13.200Z,100773
2018-08-20T01:24:42.037Z,100771
2018-08-20T01:27:10.867Z,100773
2018-08-20T01:29:39.724Z,100765
2018-08-20T01:32:08.567Z,100764
2018-08-20T01:34:38.145Z,100763
2018-08-20T01:37:06.986Z,100768
2018-08-20T01:39:35.830Z,100759
2018-08-20T01:42:04.666Z,100763
2018-08-20T01:44:33.503Z,100764
2018-08-20T01:47:02.351Z,100764
2018-08-20T01:49:31.199Z,100764
2018-08-20T01:52:00.778Z,100771
2018-08-20T01:54:29.619Z,100770
2018-08-20T01:56:58.462Z,100768
2018-08-20T01:59:27.915Z,100769
2018-08-20T02:01:56.753Z,100774
2018-08-20T02:04:25.611Z,100764
2018-08-20T02:06:54.457Z,100768
2018-08-20T02:09:24.041Z,100770
2018-08-20T02:11:52.888Z,100767
2018-08-20T02:14:21.725Z,100761
2018-08-20T02:16:50.576Z,100775
2018-08-20T02:19:19.410Z,100775
2018-08-20T02:21:48.261Z,100767
2018-08-20T02:24:17.104Z,100771
2018-08-20T02:26:46.694Z,100770
2018-08-20T02:29:15.539Z,100770
2018-08-20T02:31:44.377Z,100773
2018-08-20T02:34:13.214Z,100774
2018-08-20T02:36:42.069Z,100772
2018-08-20T02:39:11.659Z,100767
2018-08-20T02:41:40.520Z,100757
2018-08-20T02:44:09.354Z,100768
2018-08-20T02:46:38.935Z,100764
2018-08-20T02:49:07.785Z,100775
2018-08-20T02:51:36.626Z,100764
2018-08-20T02:54:05.468Z,100769
2018-08-20T02:56:34.306Z,100769
2018-08-20T02:59:03.896Z,100759
2018-08-20T03:01:32.760Z,100766
2018-08-20T03:04:01.621Z,100762
2018-08-20T03:06:30.492Z,100762
2018-08-20T03:08:59.365Z,100766
2018-08-20T03:11:28.236Z,100774
2018-08-20T03:13:57.098Z,100763
2018-08-20T03:16:26.002Z,100768
2018-08-20T03:18:55.566Z,100766
2018-08-20T03:21:24.409Z,100763
2018-08-20T03:23:53.249Z,100767
2018-08-20T03:26:22.084Z,100769
2018-08-20T03:28:50.931Z,100768
2018-08-20T03:31:19.767Z,100767
2018-08-20T03:33:48.599Z,100767
2018-08-20T03:36:17.459Z,100763
2018-08-20T03:38:46.304Z,100765
2018-08-20T03:41:15.158Z,100759
2018-08-20T03:43:44.041Z,100757
2018-08-20T03:46:12.883Z,100751
2018-08-20T03:48:41.735Z,100756
2018-08-20T03:51:10.582Z,100751
2018-08-20T03:53:39.442Z,100748
2018-08-20T03:56:08.268Z,100740
2018-08-20T03:58:37.858Z,100745
2018-08-20T04:01:06.701Z,100743
2018-08-20T04:03:35.543Z,100748
2018-08-20T04:06:05.146Z,100752
2018-08-20T04:08:33.983Z,100759
2018-08-20T04:11:02.825Z,100761
2018-08-20T04:13:32.422Z,100752
2018-08-20T04:16:01.275Z,100758
2018-08-20T04:18:30.113Z,100758
2018-08-20T04:20:58.961Z,100757
2018-08-20T04:23:27.819Z,100757
2018-08-20T04:25:56.676Z,100760
2018-08-20T04:28:25.530Z,100755
2018-08-20T04:30:54.372Z,100757
2018-08-20T04:33:23.207Z,100755
2018-08-20T04:35:52.045Z,100748
2018-08-20T04:38:20.882Z,100752
2018-08-20T04:40:49.732Z,100757
2018-08-20T04:43:18.569Z,100751
2018-08-20T04:45:47.410Z,100753
2018-08-20T04:48:16.245Z,100760
2018-08-20T04:50:45.179Z,100756
2018-08-20T04:53:13.925Z,100766
2018-08-20T04:55:42.765Z,100761
2018-08-20T04:58:11.612Z,100764
2018-08-20T05:00:40.455Z,100766
2018-08-20T05:03:09.302Z,100771
2018-08-20T05:05:38.145Z,100773
2018-08-20T05:08:06.989Z,100771
2018-08-20T05:10:36.568Z,100774
2018-08-20T05:13:05.405Z,100783
2018-08-20T05:15:34.252Z,100779
2018-08-20T05:18:03.095Z,100778
2018-08-20T05:20:31.934Z,100774
2018-08-20T05:23:00.793Z,100775
2018-08-20T05:25:29.621Z,100780
2018-08-20T05:27:59.208Z,100782
2018-08-20T05:30:28.042Z,100780
2018-08-20T05:32:56.885Z,100779
2018-08-20T05:35:25.726Z,100784
2018-08-20T05:37:54.570Z,100780
2018-08-20T05:40:23.419Z,100774
2018-08-20T05:42:52.262Z,100784
2018-08-20T05:45:21.102Z,100787
2018-08-20T05:47:49.956Z,100784
2018-08-20T05:50:19.545Z,100785
2018-08-20T05:52:48.378Z,100781
2018-08-20T05:55:17.266Z,100782
2018-08-20T05:57:46.090Z,100783
2018-08-20T06:00:14.924Z,100795
2018-08-20T06:02:43.771Z,100790
2018-08-20T06:05:12.614Z,100808
2018-08-20T06:07:41.456Z,100796
2018-08-20T06:10:10.298Z,100794
2018-08-20T06:12:39.138Z,100799
2018-08-20T06:15:08.011Z,100802
2018-08-20T06:17:36.832Z,100804
2018-08-20T06:20:05.691Z,100813
2018-08-20T06:22:34.591Z,100806
2018-08-20T06:25:04.215Z,100813
2018-08-20T06:27:33.728Z,100819
2018-08-20T06:30:02.560Z,100816
2018-08-20T06:32:32.178Z,100817
2018-08-20T06:35:01.037Z,100820
2018-08-20T06:37:29.896Z,100824
2018-08-20T06:39:58.737Z,100828
2018-08-20T06:42:27.588Z,100835
2018-08-20T06:44:56.431Z,100835
2018-08-20T06:47:26.017Z,100823
2018-08-20T06:49:54.879Z,100830
2018-08-20T06:52:23.725Z,100831
2018-08-20T06:54:52.569Z,100836
2018-08-20T06:57:21.412Z,100836
2018-08-20T06:59:51.016Z,100833
2018-08-20T07:02:19.859Z,100848
2018-08-20T07:04:48.696Z,100846
2018-08-20T07:07:17.550Z,100845
2018-08-20T07:09:46.397Z,100846
2018-08-20T07:12:15.984Z,100851
2018-08-20T07:14:44.823Z,100847
2018-08-20T07:17:13.671Z,100853
2018-08-20T07:19:42.529Z,100851
2018-08-20T07:22:11.360Z,100847
2018-08-20T07:24:40.205Z,100847
2018-08-20T07:27:09.050Z,100850
2018-08-20T07:32:19.316Z,100844
2018-08-20T07:34:48.155Z,100852
2018-08-20T07:37:16.989Z,100846
2018-08-20T07:39:46.583Z,100855
2018-08-20T07:42:15.457Z,100860
2018-08-20T07:44:44.278Z,100862
2018-08-20T07:47:13.115Z,100865
2018-08-20T07:49:41.967Z,100859
2018-08-20T07:52:10.802Z,100862
2018-08-20T07:54:39.644Z,100863
2018-08-20T07:57:08.498Z,100857
2018-08-20T07:59:37.322Z,100856
2018-08-20T08:02:06.911Z,100860
2018-08-20T08:04:36.572Z,100862
2018-08-20T08:07:05.353Z,100862
2018-08-20T08:09:34.196Z,100860
2018-08-20T08:12:03.077Z,100863
2018-08-20T08:14:31.939Z,100867
2018-08-20T08:17:00.773Z,100862
2018-08-20T08:19:29.612Z,100860
2018-08-20T08:21:58.447Z,100860
2018-08-20T08:24:27.301Z,100855
2018-08-20T08:26:56.129Z,100854
2018-08-20T08:29:24.995Z,100863
2018-08-20T08:31:53.831Z,100857
2018-08-20T08:34:22.695Z,100857
2018-08-20T08:36:51.526Z,100859
2018-08-20T08:39:20.370Z,100864
2018-08-20T08:41:49.217Z,100852
2018-08-20T08:44:18.048Z,100852
2018-08-20T08:46:46.896Z,100852
2018-08-20T08:49:15.734Z,100855
2018-08-20T08:51:44.586Z,100851
2018-08-20T08:54:13.429Z,100853
2018-08-20T08:56:42.304Z,100845
2018-08-20T08:59:11.894Z,100847
2018-08-20T09:01:40.741Z,100846
2018-08-20T09:04:09.583Z,100843
2018-08-20T09:06:38.454Z,100844
2018-08-20T09:09:07.311Z,100839
2018-08-20T09:11:36.346Z,100847
2018-08-20T09:14:05.151Z,100839
2018-08-20T09:16:34.743Z,100828
2018-08-20T09:19:03.608Z,100828
2018-08-20T09:21:32.441Z,100836
2018-08-20T09:24:01.316Z,100836
2018-08-20T09:26:30.151Z,100835
2018-08-20T09:28:58.991Z,100833
2018-08-20T09:31:27.853Z,100833
2018-08-20T09:33:56.686Z,100834
2018-08-20T09:36:25.549Z,100843
2018-08-20T09:38:54.386Z,100835
2018-08-20T09:41:23.229Z,100828
2018-08-20T09:43:52.179Z,100825
2018-08-20T09:46:20.944Z,100828
2018-08-20T09:48:49.794Z,100829
2018-08-20T09:51:18.645Z,100829
2018-08-20T09:53:47.496Z,100821
2018-08-20T09:56:16.350Z,100829
2018-08-20T09:58:45.187Z,100825
2018-08-20T10:01:14.029Z,100820
2018-08-20T10:03:42.876Z,100824
2018-08-20T10:06:11.727Z,100822
2018-08-20T10:08:40.558Z,100812
2018-08-20T10:11:10.156Z,100821
2018-08-20T10:13:39.595Z,100821
2018-08-20T10:16:08.434Z,100815
2018-08-20T10:18:37.303Z,100807
2018-08-20T10:21:06.138Z,100799
2018-08-20T10:23:35.708Z,100801
2018-08-20T10:26:04.542Z,100797
2018-08-20T10:28:33.466Z,100799
2018-08-20T10:31:02.306Z,100799
2018-08-20T10:33:31.138Z,100804
2018-08-20T10:35:59.968Z,100795
2018-08-20T10:38:28.832Z,100804
2018-08-20T10:40:57.672Z,100798
2018-08-20T10:43:27.286Z,100797
2018-08-20T10:48:33.040Z,100790
2018-08-20T10:51:02.693Z,100791
2018-08-20T10:53:31.473Z,100789
2018-08-20T10:56:00.319Z,100794
2018-08-20T10:58:29.180Z,100797
2018-08-20T11:00:58.034Z,100785
2018-08-20T11:03:26.886Z,100787
2018-08-20T11:05:55.727Z,100791
2018-08-20T11:08:24.567Z,100790
2018-08-20T11:10:53.548Z,100792
2018-08-20T11:13:22.312Z,100787
2018-08-20T11:15:51.162Z,100788
2018-08-20T11:18:20.781Z,100789
2018-08-20T11:20:50.347Z,100785
2018-08-20T11:23:19.188Z,100783
2018-08-20T11:25:48.038Z,100782
2018-08-20T11:28:16.878Z,100786
2018-08-20T11:30:45.726Z,100787
2018-08-20T11:33:15.314Z,100783
2018-08-20T11:35:44.152Z,100789
2018-08-20T11:38:12.987Z,100781
2018-08-20T11:40:41.830Z,100786
2018-08-20T11:43:10.681Z,100784
2018-08-20T11:45:39.520Z,100785
2018-08-20T11:48:08.363Z,100788
2018-08-20T11:50:37.216Z,100785
2018-08-20T11:53:06.054Z,100791
2018-08-20T11:55:35.639Z,100790
2018-08-20T11:58:04.482Z,100783
2018-08-20T12:00:33.326Z,100786
2018-08-20T12:03:02.909Z,100787
2018-08-20T12:05:31.750Z,100791
2018-08-20T12:08:00.580Z,100790
2018-08-20T12:10:29.426Z,100787
2018-08-20T12:12:58.266Z,100776
2018-08-20T12:15:27.111Z,100780
2018-08-20T12:17:55.946Z,100780
2018-08-20T12:20:24.777Z,100775
2018-08-20T12:22:53.624Z,100779
2018-08-20T12:25:22.464Z,100781
2018-08-20T12:27:51.313Z,100776
2018-08-20T12:30:20.175Z,100772
2018-08-20T12:32:49.023Z,100772
2018-08-20T12:35:17.902Z,100775
2018-08-20T12:37:46.738Z,100772
2018-08-20T12:40:15.640Z,100773
2018-08-20T12:42:44.435Z,100773
2018-08-20T12:45:13.275Z,100777
2018-08-20T12:47:42.860Z,100773
2018-08-20T12:50:11.732Z,100774
2018-08-20T12:52:40.557Z,100773
2018-08-20T12:55:10.154Z,100774
2018-08-20T12:57:39.014Z,100772
2018-08-20T13:00:07.853Z,100772
2018-08-20T13:02:36.685Z,100779
2018-08-20T13:05:05.526Z,100773
2018-08-20T13:07:34.385Z,100773
2018-08-20T13:10:03.216Z,100773
2018-08-20T13:12:32.068Z,100763
2018-08-20T13:15:01.686Z,100764
2018-08-20T13:17:30.524Z,100761
2018-08-20T13:19:59.378Z,100763
2018-08-20T13:22:28.227Z,100754
2018-08-20T13:24:57.081Z,100762
2018-08-20T13:27:25.960Z,100751
2018-08-20T13:29:54.787Z,100751
2018-08-20T13:32:23.642Z,100751
2018-08-20T13:34:52.488Z,100747
2018-08-20T13:37:21.387Z,100745
2018-08-20T13:39:50.191Z,100742
2018-08-20T13:42:19.050Z,100750
2018-08-20T13:44:47.904Z,100745
2018-08-20T13:47:16.732Z,100736
2018-08-20T13:49:45.570Z,100736
2018-08-20T13:52:14.403Z,100740
2018-08-20T13:54:43.257Z,100737
2018-08-20T13:57:12.086Z,100745
2018-08-20T13:59:40.970Z,100739
2018-08-20T14:02:09.777Z,100734
2018-08-20T14:04:38.617Z,100728
2018-08-20T14:07:07.452Z,100737
2018-08-20T14:09:37.047Z,100725
2018-08-20T14:12:05.888Z,100723
2018-08-20T14:14:34.751Z,100720
2018-08-20T14:17:04.331Z,100725
2018-08-20T14:19:33.199Z,100727
2018-08-20T14:22:02.053Z,100718
2018-08-20T14:24:30.911Z,100716
2018-08-20T14:27:00.035Z,100718
2018-08-20T14:29:28.628Z,100722
2018-08-20T14:31:57.495Z,100720
2018-08-20T14:34:26.346Z,100714
2018-08-20T14:36:55.213Z,100713
2018-08-20T14:39:24.032Z,100708
2018-08-20T14:41:52.884Z,100712
2018-08-20T14:44:21.718Z,100711
2018-08-20T14:46:50.563Z,100701
2018-08-20T14:49:19.411Z,100701
2018-08-20T14:51:49.038Z,100702
2018-08-20T14:54:17.884Z,100694
2018-08-20T14:56:46.724Z,100697
2018-08-20T14:59:15.584Z,100692
2018-08-20T15:01:44.440Z,100690
2018-08-20T15:04:13.295Z,100683
2018-08-20T15:06:42.143Z,100689
2018-08-20T15:09:11.090Z,100692
2018-08-20T15:11:39.839Z,100685
2018-08-20T15:14:09.461Z,100683
2018-08-20T15:16:38.306Z,100681
2018-08-20T15:19:07.156Z,100685
2018-08-20T15:21:36.003Z,100682
2018-08-20T15:24:04.853Z,100678
2018-08-20T15:26:33.688Z,100675
2018-08-20T15:29:03.263Z,100674
2018-08-20T15:31:32.133Z,100679
2018-08-20T15:34:00.975Z,100675
2018-08-20T15:36:29.814Z,100676
2018-08-20T15:38:58.645Z,100682
2018-08-20T15:41:28.248Z,100674
2018-08-20T15:43:57.192Z,100676
2018-08-20T15:46:25.944Z,100674
2018-08-20T15:48:55.534Z,100673
2018-08-20T15:51:24.390Z,100668
2018-08-20T15:53:53.229Z,100672
2018-08-20T15:56:22.817Z,100674
2018-08-20T15:58:52.266Z,100680
2018-08-20T16:01:21.121Z,100673
2018-08-20T16:03:50.721Z,100673
2018-08-20T16:06:19.855Z,100669
2018-08-20T16:08:48.454Z,100670
2018-08-20T16:11:17.292Z,100670
2018-08-20T16:13:46.144Z,100672
2018-08-20T16:16:14.994Z,100667
2018-08-20T16:18:43.854Z,100660
2018-08-20T16:21:12.741Z,100664
2018-08-20T16:23:41.585Z,100666
2018-08-20T16:26:10.476Z,100665
2018-08-20T16:28:39.307Z,100663
2018-08-20T16:31:08.150Z,100664
2018-08-20T16:33:36.996Z,100657
2018-08-20T16:36:05.837Z,100665
2018-08-20T16:38:34.689Z,100662
2018-08-20T16:41:04.294Z,100664
2018-08-20T16:43:34.068Z,100662
2018-08-20T16:46:02.890Z,100655
2018-08-20T16:48:31.742Z,100653
2018-08-20T16:51:00.607Z,100655
2018-08-20T16:53:29.428Z,100648
2018-08-20T16:55:58.269Z,100649
2018-08-20T16:58:27.111Z,100653
2018-08-20T17:00:55.958Z,100652
2018-08-20T17:03:24.838Z,100649
2018-08-20T17:05:53.693Z,100650
2018-08-20T17:08:22.535Z,100655
2018-08-20T17:10:51.379Z,100652
2018-08-20T17:13:20.232Z,100651
2018-08-20T17:15:49.090Z,100648
2018-08-20T17:18:17.962Z,100647
2018-08-20T17:20:47.567Z,100641
2018-08-20T17:23:16.409Z,100647
2018-08-20T17:25:45.261Z,100648
2018-08-20T17:28:14.133Z,100642
2018-08-20T17:30:43.727Z,100646
2018-08-20T17:33:12.569Z,100647
2018-08-20T17:35:41.414Z,100648
2018-08-20T17:38:11.009Z,100652
2018-08-20T17:40:39.861Z,100654
2018-08-20T17:43:08.696Z,100656
2018-08-20T17:45:37.749Z,100661
2018-08-20T17:48:07.247Z,100663
2018-08-20T17:50:36.063Z,100655
2018-08-20T17:53:06.753Z,100656
2018-08-20T17:55:35.594Z,100657
2018-08-20T17:58:04.455Z,100663
2018-08-20T18:00:33.291Z,100657
2018-08-20T18:03:02.158Z,100660
2018-08-20T18:05:30.992Z,100673
2018-08-20T18:07:59.833Z,100666
2018-08-20T18:10:28.998Z,100662
2018-08-20T18:12:57.753Z,100665
2018-08-20T18:15:26.602Z,100664
2018-08-20T18:17:55.451Z,100662
2018-08-20T18:20:24.305Z,100666
2018-08-20T18:22:53.151Z,100672
2018-08-20T18:25:21.996Z,100672
2018-08-20T18:27:51.584Z,100677
2018-08-20T18:30:20.489Z,100677
2018-08-20T18:32:49.275Z,100682
2018-08-20T18:35:18.135Z,100682
2018-08-20T18:37:47.050Z,100680
2018-08-20T18:40:15.966Z,100685
2018-08-20T18:42:44.826Z,100684
2018-08-20T18:45:14.285Z,100692
2018-08-20T18:47:43.124Z,100701
2018-08-20T18:50:11.999Z,100696
2018-08-20T18:52:40.864Z,100701
2018-08-20T18:55:09.706Z,100706
2018-08-20T18:57:38.554Z,100703
2018-08-20T19:00:07.434Z,100708
2018-08-20T19:02:36.288Z,100707
2018-08-20T19:05:05.144Z,100707
2018-08-20T19:07:33.999Z,100714
2018-08-20T19:10:02.852Z,100718
2018-08-20T19:12:32.481Z,100715
2018-08-20T19:15:01.348Z,100714
2018-08-20T19:17:30.956Z,100713
2018-08-20T19:19:59.814Z,100714
2018-08-20T19:22:28.701Z,100714
2018-08-20T19:24:57.500Z,100720
2018-08-20T19:27:26.365Z,100718
2018-08-20T19:29:55.209Z,100722
2018-08-20T19:32:24.808Z,100722
2018-08-20T19:34:54.428Z,100724
2018-08-20T19:37:23.278Z,100725
2018-08-20T19:39:52.119Z,100732
2018-08-20T19:42:21.022Z,100730
2018-08-20T19:44:49.838Z,100736
2018-08-20T19:47:18.685Z,100729
2018-08-20T19:49:47.537Z,100735
2018-08-20T19:52:16.394Z,100733
2018-08-20T19:54:45.225Z,100736
2018-08-20T19:57:14.126Z,100736
2018-08-20T19:59:42.933Z,100738
2018-08-20T20:02:11.804Z,100748
2018-08-20T20:04:40.679Z,100747
2018-08-20T20:07:09.557Z,100746
2018-08-20T20:09:38.408Z,100744
2018-08-20T20:12:07.281Z,100753
2018-08-20T20:14:36.130Z,100747
2018-08-20T20:17:04.971Z,100751
2018-08-20T20:19:33.819Z,100752
2018-08-20T20:22:02.679Z,100755
2018-08-20T20:24:31.555Z,100753
2018-08-20T20:27:00.412Z,100753
2018-08-20T20:29:29.295Z,100753
2018-08-20T20:31:58.891Z,100753
2018-08-20T20:34:27.731Z,100759
2018-08-20T20:36:56.582Z,100764
2018-08-20T20:39:25.457Z,100768
2018-08-20T20:41:54.306Z,100772
2018-08-20T20:44:23.902Z,100777
2018-08-20T20:46:53.508Z,100778
2018-08-20T20:49:22.383Z,100774
2018-08-20T20:51:51.211Z,100777
2018-08-20T20:54:20.822Z,100785
2018-08-20T20:56:50.403Z,100794
2018-08-20T20:59:19.256Z,100795
2018-08-20T21:01:48.129Z,100794
2018-08-20T21:04:17.698Z,100792
2018-08-20T21:06:46.598Z,100797
2018-08-20T21:09:15.449Z,100799
2018-08-20T21:11:44.291Z,100806
2018-08-20T21:14:13.252Z,100808
2018-08-20T21:16:42.633Z,100809
2018-08-20T21:19:11.505Z,100808
2018-08-20T21:21:40.343Z,100820
2018-08-20T21:24:09.210Z,100820
2018-08-20T21:26:38.050Z,100818
2018-08-20T21:29:06.911Z,100821
2018-08-20T21:31:35.754Z,100830
2018-08-20T21:34:04.616Z,100822
2018-08-20T21:36:33.460Z,100824
2018-08-20T21:39:02.335Z,100823
2018-08-20T21:41:31.195Z,100825
2018-08-20T21:44:00.062Z,100830
2018-08-20T21:46:29.662Z,100835
2018-08-20T21:48:59.266Z,100834
2018-08-20T21:51:28.110Z,100829
2018-08-20T21:53:56.961Z,100836
2018-08-20T21:56:25.816Z,100828
2018-08-20T21:58:54.665Z,100826
2018-08-20T22:01:23.590Z,100827
2018-08-20T22:03:52.366Z,100831
2018-08-20T22:06:21.210Z,100832
2018-08-20T22:08:50.052Z,100834
2018-08-20T22:11:18.895Z,100844
2018-08-20T22:13:47.751Z,100843
2018-08-20T22:16:16.602Z,100849
2018-08-20T22:18:45.441Z,100845
2018-08-20T22:21:14.289Z,100846
2018-08-20T22:23:43.130Z,100851
2018-08-20T22:26:11.978Z,100849
2018-08-20T22:28:40.820Z,100838
2018-08-20T22:31:10.407Z,100853
2018-08-20T22:33:39.269Z,100857
2018-08-20T22:36:08.105Z,100858
2018-08-20T22:38:36.945Z,100854
2018-08-20T22:41:05.792Z,100854
2018-08-20T22:43:34.650Z,100857
2018-08-20T22:46:04.235Z,100854
2018-08-20T22:48:33.069Z,100862
2018-08-20T22:51:02.655Z,100862
2018-08-20T22:53:31.498Z,100864
2018-08-20T22:56:05.281Z,100860
2018-08-20T22:58:34.123Z,100869
2018-08-20T23:01:02.959Z,100875
2018-08-20T23:03:31.797Z,100871
2018-08-20T23:06:00.653Z,100867
2018-08-20T23:08:29.491Z,100877
2018-08-20T23:10:58.335Z,100871
2018-08-20T23:13:27.177Z,100866
2018-08-20T23:15:56.768Z,100865
2018-08-20T23:18:26.360Z,100869
2018-08-20T23:20:55.201Z,100872
2018-08-20T23:23:24.060Z,100863
2018-08-20T23:25:52.902Z,100873
2018-08-20T23:28:21.737Z,100868
2018-08-20T23:30:50.597Z,100868
2018-08-20T23:33:19.432Z,100868
2018-08-20T23:35:48.287Z,100869
2018-08-20T23:38:17.129Z,100864
2018-08-20T23:40:46.708Z,100867
2018-08-20T23:43:15.564Z,100865
2018-08-20T23:45:44.411Z,100864
2018-08-20T23:48:14.001Z,100873
2018-08-20T23:50:42.865Z,100862
2018-08-20T23:53:11.673Z,100862
2018-08-20T23:55:41.106Z,100860
2018-08-20T23:58:09.956Z,100863
